createdAt,value
2018-07-01T00:00:14.057Z,1006.77
2018-07-01T00:01:14.027Z,1006.80
2018-07-01T00:02:14.012Z,1006.78
2018-07-01T00:03:13.998Z,1006.77
2018-07-01T00:04:13.980Z,1006.81
2018-07-01T00:05:13.985Z,1006.81
2018-07-01T00:06:13.953Z,1006.84
2018-07-01T00:07:13.937Z,1006.81
2018-07-01T00:08:13.922Z,1006.87
2018-07-01T00:09:13.907Z,1006.86
2018-07-01T00:10:13.891Z,1006.87
2018-07-01T00:11:13.886Z,1006.87
2018-07-01T00:12:13.861Z,1006.88
2018-07-01T00:13:13.848Z,1006.92
2018-07-01T00:14:13.831Z,1006.93
2018-07-01T00:15:13.847Z,1006.97
2018-07-01T00:16:13.811Z,1007.00
2018-07-01T00:17:13.785Z,1007.03
2018-07-01T00:18:13.774Z,1007.02
2018-07-01T00:19:13.757Z,1007.00
2018-07-01T00:20:13.738Z,1007.03
2018-07-01T00:21:13.733Z,1007.02
2018-07-01T00:22:13.708Z,1007.05
2018-07-01T00:23:13.699Z,1007.01
2018-07-01T00:24:13.678Z,1007.06
2018-07-01T00:25:13.665Z,1007.07
2018-07-01T00:26:13.663Z,1007.07
2018-07-01T00:27:13.633Z,1007.01
2018-07-01T00:28:13.623Z,1007.02
2018-07-01T00:29:13.601Z,1007.10
2018-07-01T00:30:13.587Z,1007.05
2018-07-01T00:31:13.582Z,1007.04
2018-07-01T00:32:13.556Z,1007.02
2018-07-01T00:33:13.541Z,1007.04
2018-07-01T00:34:13.527Z,1007.02
2018-07-01T00:35:13.515Z,1007.04
2018-07-01T00:36:13.505Z,1007.05
2018-07-01T00:37:13.480Z,1006.99
2018-07-01T00:38:13.466Z,1007.00
2018-07-01T00:39:13.449Z,1006.98
2018-07-01T00:40:13.434Z,1006.99
2018-07-01T00:41:13.428Z,1006.99
2018-07-01T00:42:13.445Z,1006.97
2018-07-01T00:43:13.388Z,1007.01
2018-07-01T00:44:13.373Z,1006.96
2018-07-01T00:45:13.361Z,1006.94
2018-07-01T00:46:13.351Z,1006.94
2018-07-01T00:47:13.327Z,1006.95
2018-07-01T00:48:13.310Z,1006.93
2018-07-01T00:49:13.299Z,1006.92
2018-07-01T00:50:13.280Z,1006.95
2018-07-01T00:51:13.279Z,1007.03
2018-07-01T00:52:13.248Z,1007.00
2018-07-01T00:53:13.235Z,1007.00
2018-07-01T00:54:13.219Z,1007.01
2018-07-01T00:55:13.205Z,1006.96
2018-07-01T00:56:13.188Z,1007.03
2018-07-01T00:57:13.181Z,1007.02
2018-07-01T00:58:13.155Z,1007.05
2018-07-01T00:59:13.143Z,1007.02
2018-07-01T01:00:13.124Z,1007.05
2018-07-01T01:01:13.110Z,1007.03
2018-07-01T01:02:13.105Z,1007.06
2018-07-01T01:03:13.079Z,1007.06
2018-07-01T01:04:13.064Z,1007.06
2018-07-01T01:05:13.050Z,1007.04
2018-07-01T01:06:13.032Z,1007.01
2018-07-01T01:07:13.033Z,1007.00
2018-07-01T01:08:13.001Z,1007.04
2018-07-01T01:09:12.985Z,1007.05
2018-07-01T01:10:12.972Z,1007.05
2018-07-01T01:11:12.955Z,1007.04
2018-07-01T01:12:12.948Z,1007.08
2018-07-01T01:13:12.936Z,1007.08
2018-07-01T01:14:12.909Z,1007.05
2018-07-01T01:15:12.892Z,1007.07
2018-07-01T01:16:12.879Z,1007.08
2018-07-01T01:17:12.870Z,1007.06
2018-07-01T01:18:12.846Z,1007.12
2018-07-01T01:19:12.831Z,1007.14
2018-07-01T01:20:12.814Z,1007.09
2018-07-01T01:21:12.851Z,1007.10
2018-07-01T01:22:12.793Z,1007.10
2018-07-01T01:23:12.767Z,1007.08
2018-07-01T01:24:12.752Z,1007.11
2018-07-01T01:25:12.740Z,1007.09
2018-07-01T01:26:12.720Z,1007.08
2018-07-01T01:27:12.716Z,1007.09
2018-07-01T01:28:12.689Z,1007.07
2018-07-01T01:29:12.674Z,1007.08
2018-07-01T01:30:12.658Z,1007.11
2018-07-01T01:31:12.643Z,1007.08
2018-07-01T01:32:12.642Z,1007.09
2018-07-01T01:33:12.611Z,1007.12
2018-07-01T01:34:12.596Z,1007.17
2018-07-01T01:35:12.580Z,1007.14
2018-07-01T01:36:12.564Z,1007.12
2018-07-01T01:37:12.548Z,1007.18
2018-07-01T01:38:12.542Z,1007.22
2018-07-01T01:39:12.519Z,1007.16
2018-07-01T01:40:12.503Z,1007.14
2018-07-01T01:41:12.485Z,1007.13
2018-07-01T01:42:12.474Z,1007.14
2018-07-01T01:43:12.468Z,1007.15
2018-07-01T01:44:12.438Z,1007.13
2018-07-01T01:45:12.423Z,1007.13
2018-07-01T01:46:12.406Z,1007.12
2018-07-01T01:47:12.391Z,1007.13
2018-07-01T01:48:12.406Z,1007.16
2018-07-01T01:49:12.360Z,1007.19
2018-07-01T01:50:12.342Z,1007.22
2018-07-01T01:51:12.328Z,1007.20
2018-07-01T01:52:12.315Z,1007.21
2018-07-01T01:53:12.293Z,1007.22
2018-07-01T01:54:12.288Z,1007.20
2018-07-01T01:55:12.264Z,1007.20
2018-07-01T01:56:12.247Z,1007.20
2018-07-01T01:57:12.232Z,1007.18
2018-07-01T01:58:12.216Z,1007.14
2018-07-01T01:59:12.209Z,1007.17
2018-07-01T02:00:12.188Z,1007.18
2018-07-01T02:01:12.167Z,1007.19
2018-07-01T02:02:12.150Z,1007.19
2018-07-01T02:03:12.140Z,1007.15
2018-07-01T02:04:12.130Z,1007.16
2018-07-01T02:05:12.102Z,1007.15
2018-07-01T02:06:12.088Z,1007.10
2018-07-01T02:07:12.072Z,1007.16
2018-07-01T02:08:12.055Z,1007.15
2018-07-01T02:09:12.049Z,1007.16
2018-07-01T02:10:12.024Z,1007.14
2018-07-01T02:11:12.009Z,1007.17
2018-07-01T02:12:11.991Z,1007.19
2018-07-01T02:13:11.974Z,1007.16
2018-07-01T02:14:11.993Z,1007.20
2018-07-01T02:15:11.944Z,1007.18
2018-07-01T02:16:11.927Z,1007.22
2018-07-01T02:17:11.915Z,1007.21
2018-07-01T02:18:11.893Z,1007.18
2018-07-01T02:19:11.879Z,1007.24
2018-07-01T02:20:11.875Z,1007.22
2018-07-01T02:21:11.845Z,1007.25
2018-07-01T02:22:11.830Z,1007.23
2018-07-01T02:23:11.815Z,1007.23
2018-07-01T02:24:11.800Z,1007.26
2018-07-01T02:25:11.793Z,1007.28
2018-07-01T02:26:11.766Z,1007.23
2018-07-01T02:27:11.750Z,1007.24
2018-07-01T02:28:11.733Z,1007.25
2018-07-01T02:29:11.718Z,1007.24
2018-07-01T02:30:11.713Z,1007.27
2018-07-01T02:31:11.684Z,1007.29
2018-07-01T02:32:11.671Z,1007.28
2018-07-01T02:33:11.655Z,1007.26
2018-07-01T02:34:11.637Z,1007.28
2018-07-01T02:35:16.593Z,1007.32
2018-07-01T02:36:11.604Z,1007.36
2018-07-01T02:37:11.588Z,1007.39
2018-07-01T02:38:11.571Z,1007.41
2018-07-01T02:39:11.556Z,1007.39
2018-07-01T02:40:11.549Z,1007.41
2018-07-01T02:41:11.522Z,1007.46
2018-07-01T02:42:11.505Z,1007.43
2018-07-01T02:43:11.491Z,1007.48
2018-07-01T02:44:11.473Z,1007.44
2018-07-01T02:45:11.471Z,1007.44
2018-07-01T02:46:11.441Z,1007.45
2018-07-01T02:47:11.467Z,1007.42
2018-07-01T02:48:11.405Z,1007.45
2018-07-01T02:49:11.391Z,1007.44
2018-07-01T02:50:11.375Z,1007.46
2018-07-01T02:51:11.372Z,1007.44
2018-07-01T02:52:11.342Z,1007.45
2018-07-01T02:53:11.326Z,1007.46
2018-07-01T02:54:11.307Z,1007.44
2018-07-01T02:55:11.297Z,1007.42
2018-07-01T02:56:11.285Z,1007.42
2018-07-01T02:57:11.259Z,1007.45
2018-07-01T02:58:11.244Z,1007.45
2018-07-01T02:59:11.229Z,1007.42
2018-07-01T03:00:11.209Z,1007.40
2018-07-01T03:01:11.213Z,1007.44
2018-07-01T03:02:11.183Z,1007.41
2018-07-01T03:03:11.161Z,1007.39
2018-07-01T03:04:11.148Z,1007.42
2018-07-01T03:05:11.127Z,1007.44
2018-07-01T03:06:11.110Z,1007.42
2018-07-01T03:07:11.105Z,1007.45
2018-07-01T03:08:11.078Z,1007.44
2018-07-01T03:09:11.061Z,1007.49
2018-07-01T03:10:11.047Z,1007.47
2018-07-01T03:11:11.029Z,1007.47
2018-07-01T03:12:11.021Z,1007.51
2018-07-01T03:13:10.994Z,1007.52
2018-07-01T03:14:10.979Z,1007.50
2018-07-01T03:15:10.962Z,1007.53
2018-07-01T03:16:10.944Z,1007.51
2018-07-01T03:17:10.961Z,1007.49
2018-07-01T03:18:10.915Z,1007.51
2018-07-01T03:19:10.900Z,1007.53
2018-07-01T03:20:10.877Z,1007.53
2018-07-01T03:21:10.861Z,1007.52
2018-07-01T03:22:10.844Z,1007.55
2018-07-01T03:23:10.839Z,1007.53
2018-07-01T03:24:10.812Z,1007.59
2018-07-01T03:25:10.793Z,1007.56
2018-07-01T03:26:10.780Z,1007.53
2018-07-01T03:27:10.762Z,1007.57
2018-07-01T03:28:10.754Z,1007.53
2018-07-01T03:29:10.728Z,1007.48
2018-07-01T03:30:10.711Z,1007.48
2018-07-01T03:31:10.695Z,1007.45
2018-07-01T03:32:10.677Z,1007.47
2018-07-01T03:33:10.692Z,1007.49
2018-07-01T03:34:10.643Z,1007.50
2018-07-01T03:35:10.628Z,1007.52
2018-07-01T03:36:10.610Z,1007.54
2018-07-01T03:37:10.593Z,1007.51
2018-07-01T03:38:10.577Z,1007.54
2018-07-01T03:39:10.570Z,1007.53
2018-07-01T03:40:10.543Z,1007.55
2018-07-01T03:41:10.527Z,1007.53
2018-07-01T03:42:10.509Z,1007.51
2018-07-01T03:43:10.495Z,1007.55
2018-07-01T03:44:10.494Z,1007.55
2018-07-01T03:45:10.459Z,1007.55
2018-07-01T03:46:10.445Z,1007.60
2018-07-01T03:47:10.426Z,1007.60
2018-07-01T03:48:10.409Z,1007.57
2018-07-01T03:49:10.426Z,1007.58
2018-07-01T03:50:10.393Z,1007.62
2018-07-01T03:51:10.359Z,1007.62
2018-07-01T03:52:10.342Z,1007.63
2018-07-01T03:53:10.325Z,1007.64
2018-07-01T03:54:10.344Z,1007.65
2018-07-01T03:55:10.292Z,1007.66
2018-07-01T03:56:10.274Z,1007.63
2018-07-01T03:57:10.258Z,1007.68
2018-07-01T03:58:10.241Z,1007.65
2018-07-01T03:59:10.224Z,1007.68
2018-07-01T04:00:10.217Z,1007.62
2018-07-01T04:01:10.190Z,1007.64
2018-07-01T04:02:10.175Z,1007.64
2018-07-01T04:03:10.157Z,1007.63
2018-07-01T04:04:10.140Z,1007.62
2018-07-01T04:05:10.141Z,1007.59
2018-07-01T04:06:10.106Z,1007.64
2018-07-01T04:07:10.093Z,1007.60
2018-07-01T04:08:10.071Z,1007.66
2018-07-01T04:09:10.068Z,1007.60
2018-07-01T04:10:10.051Z,1007.60
2018-07-01T04:11:10.023Z,1007.61
2018-07-01T04:12:10.006Z,1007.61
2018-07-01T04:13:09.989Z,1007.59
2018-07-01T04:14:09.971Z,1007.58
2018-07-01T04:15:09.965Z,1007.61
2018-07-01T04:16:09.939Z,1007.59
2018-07-01T04:17:09.924Z,1007.60
2018-07-01T04:18:09.905Z,1007.61
2018-07-01T04:19:09.888Z,1007.58
2018-07-01T04:20:09.882Z,1007.62
2018-07-01T04:21:09.853Z,1007.63
2018-07-01T04:22:09.836Z,1007.62
2018-07-01T04:23:09.820Z,1007.60
2018-07-01T04:24:09.801Z,1007.60
2018-07-01T04:25:09.801Z,1007.58
2018-07-01T04:26:09.770Z,1007.59
2018-07-01T04:27:09.755Z,1007.62
2018-07-01T04:28:09.736Z,1007.64
2018-07-01T04:29:09.718Z,1007.69
2018-07-01T04:30:09.703Z,1007.68
2018-07-01T04:31:09.736Z,1007.72
2018-07-01T04:32:09.670Z,1007.72
2018-07-01T04:33:09.652Z,1007.72
2018-07-01T04:34:09.636Z,1007.68
2018-07-01T04:35:09.625Z,1007.67
2018-07-01T04:36:09.610Z,1007.65
2018-07-01T04:37:09.585Z,1007.62
2018-07-01T04:38:09.607Z,1007.60
2018-07-01T04:39:09.553Z,1007.59
2018-07-01T04:40:09.535Z,1007.54
2018-07-01T04:41:09.534Z,1007.58
2018-07-01T04:42:09.500Z,1007.57
2018-07-01T04:43:09.484Z,1007.57
2018-07-01T04:44:09.468Z,1007.57
2018-07-01T04:45:09.451Z,1007.59
2018-07-01T04:46:09.436Z,1007.57
2018-07-01T04:47:09.429Z,1007.60
2018-07-01T04:48:09.403Z,1007.58
2018-07-01T04:49:09.401Z,1007.58
2018-07-01T04:50:09.367Z,1007.63
2018-07-01T04:51:09.350Z,1007.55
2018-07-01T04:52:09.344Z,1007.61
2018-07-01T04:53:09.317Z,1007.61
2018-07-01T04:54:09.301Z,1007.60
2018-07-01T04:55:09.328Z,1007.61
2018-07-01T04:56:09.269Z,1007.64
2018-07-01T04:57:09.261Z,1007.65
2018-07-01T04:58:09.235Z,1007.65
2018-07-01T04:59:09.218Z,1007.67
2018-07-01T05:00:09.201Z,1007.69
2018-07-01T05:01:09.184Z,1007.69
2018-07-01T05:02:09.233Z,1007.66
2018-07-01T05:03:09.152Z,1007.68
2018-07-01T05:04:09.135Z,1007.68
2018-07-01T05:05:09.119Z,1007.69
2018-07-01T05:06:09.104Z,1007.67
2018-07-01T05:07:09.086Z,1007.68
2018-07-01T05:08:09.081Z,1007.66
2018-07-01T05:09:09.054Z,1007.65
2018-07-01T05:10:09.037Z,1007.68
2018-07-01T05:11:09.024Z,1007.65
2018-07-01T05:12:09.002Z,1007.67
2018-07-01T05:13:08.996Z,1007.68
2018-07-01T05:14:08.971Z,1007.71
2018-07-01T05:15:08.955Z,1007.69
2018-07-01T05:16:08.938Z,1007.68
2018-07-01T05:17:08.975Z,1007.69
2018-07-01T05:18:08.917Z,1007.70
2018-07-01T05:19:08.889Z,1007.70
2018-07-01T05:20:08.873Z,1007.67
2018-07-01T05:21:08.859Z,1007.66
2018-07-01T05:22:08.840Z,1007.70
2018-07-01T05:23:08.832Z,1007.69
2018-07-01T05:24:08.806Z,1007.65
2018-07-01T05:25:08.790Z,1007.65
2018-07-01T05:26:08.774Z,1007.66
2018-07-01T05:27:08.762Z,1007.66
2018-07-01T05:28:08.751Z,1007.69
2018-07-01T05:29:08.725Z,1007.73
2018-07-01T05:30:08.710Z,1007.73
2018-07-01T05:31:08.691Z,1007.70
2018-07-01T05:32:08.678Z,1007.74
2018-07-01T05:33:08.675Z,1007.72
2018-07-01T05:34:08.645Z,1007.71
2018-07-01T05:35:08.629Z,1007.72
2018-07-01T05:36:08.612Z,1007.72
2018-07-01T05:37:08.597Z,1007.71
2018-07-01T05:38:08.581Z,1007.73
2018-07-01T05:39:08.575Z,1007.73
2018-07-01T05:40:08.550Z,1007.72
2018-07-01T05:41:08.531Z,1007.70
2018-07-01T05:42:08.518Z,1007.74
2018-07-01T05:43:08.498Z,1007.64
2018-07-01T05:44:08.493Z,1007.69
2018-07-01T05:45:08.468Z,1007.69
2018-07-01T05:46:08.453Z,1007.69
2018-07-01T05:47:08.438Z,1007.75
2018-07-01T05:48:08.420Z,1007.78
2018-07-01T05:49:08.416Z,1007.81
2018-07-01T05:50:08.392Z,1007.82
2018-07-01T05:51:08.374Z,1007.85
2018-07-01T05:52:08.357Z,1007.89
2018-07-01T05:53:08.343Z,1007.91
2018-07-01T05:54:08.339Z,1007.92
2018-07-01T05:55:08.313Z,1007.96
2018-07-01T05:56:08.294Z,1007.95
2018-07-01T05:57:08.285Z,1007.97
2018-07-01T05:58:08.269Z,1007.91
2018-07-01T05:59:08.251Z,1007.91
2018-07-01T06:00:08.245Z,1007.94
2018-07-01T06:01:08.224Z,1007.94
2018-07-01T06:02:08.206Z,1007.93
2018-07-01T06:03:08.192Z,1007.98
2018-07-01T06:04:08.176Z,1007.97
2018-07-01T06:05:08.180Z,1008.00
2018-07-01T06:06:08.148Z,1008.00
2018-07-01T06:07:08.133Z,1007.99
2018-07-01T06:08:08.120Z,1008.04
2018-07-01T06:09:08.105Z,1008.06
2018-07-01T06:10:08.100Z,1008.05
2018-07-01T06:11:08.087Z,1008.10
2018-07-01T06:12:08.064Z,1008.10
2018-07-01T06:13:08.051Z,1008.13
2018-07-01T06:14:08.099Z,1008.17
2018-07-01T06:15:08.040Z,1008.11
2018-07-01T06:16:08.009Z,1008.11
2018-07-01T06:17:08.020Z,1008.10
2018-07-01T06:18:07.995Z,1008.12
2018-07-01T06:19:08.038Z,1008.11
2018-07-01T06:20:07.962Z,1008.11
2018-07-01T06:21:08.024Z,1008.14
2018-07-01T06:22:07.923Z,1008.17
2018-07-01T06:23:07.910Z,1008.20
2018-07-01T06:24:07.897Z,1008.16
2018-07-01T06:25:07.885Z,1008.20
2018-07-01T06:26:07.881Z,1008.18
2018-07-01T06:27:07.856Z,1008.22
2018-07-01T06:28:07.844Z,1008.21
2018-07-01T06:29:07.851Z,1008.20
2018-07-01T06:30:07.826Z,1008.24
2018-07-01T06:31:07.821Z,1008.17
2018-07-01T06:32:07.797Z,1008.13
2018-07-01T06:33:07.776Z,1008.17
2018-07-01T06:34:07.765Z,1008.19
2018-07-01T06:35:07.750Z,1008.19
2018-07-01T06:36:07.737Z,1008.21
2018-07-01T06:37:07.733Z,1008.23
2018-07-01T06:38:07.711Z,1008.19
2018-07-01T06:39:07.697Z,1008.22
2018-07-01T06:40:07.685Z,1008.20
2018-07-01T06:41:07.670Z,1008.26
2018-07-01T06:42:07.668Z,1008.20
2018-07-01T06:43:07.644Z,1008.27
2018-07-01T06:44:07.631Z,1008.29
2018-07-01T06:45:07.619Z,1008.32
2018-07-01T06:46:07.606Z,1008.36
2018-07-01T06:47:07.608Z,1008.37
2018-07-01T06:48:07.580Z,1008.41
2018-07-01T06:49:07.569Z,1008.39
2018-07-01T06:50:07.554Z,1008.48
2018-07-01T06:51:07.541Z,1008.46
2018-07-01T06:52:07.528Z,1008.50
2018-07-01T06:53:07.525Z,1008.44
2018-07-01T06:54:07.503Z,1008.46
2018-07-01T06:55:07.492Z,1008.48
2018-07-01T06:56:07.477Z,1008.53
2018-07-01T06:57:07.464Z,1008.54
2018-07-01T06:58:07.467Z,1008.53
2018-07-01T06:59:07.439Z,1008.52
2018-07-01T07:00:07.425Z,1008.51
2018-07-01T07:01:07.413Z,1008.56
2018-07-01T07:02:07.402Z,1008.48
2018-07-01T07:03:07.387Z,1008.52
2018-07-01T07:04:07.383Z,1008.60
2018-07-01T07:05:07.371Z,1008.58
2018-07-01T07:06:07.386Z,1008.60
2018-07-01T07:07:07.456Z,1008.63
2018-07-01T07:08:07.369Z,1008.60
2018-07-01T07:09:07.526Z,1008.62
2018-07-01T07:10:07.463Z,1008.60
2018-07-01T07:11:08.010Z,1008.60
2018-07-01T07:12:07.291Z,1008.60
2018-07-01T07:13:07.263Z,1008.62
2018-07-01T07:14:07.257Z,1008.51
2018-07-01T07:15:07.247Z,1008.59
2018-07-01T07:16:07.231Z,1008.55
2018-07-01T07:17:07.211Z,1008.59
2018-07-01T07:18:07.200Z,1008.56
2018-07-01T07:19:07.188Z,1008.55
2018-07-01T07:20:07.205Z,1008.60
2018-07-01T07:21:07.162Z,1008.51
2018-07-01T07:22:07.150Z,1008.62
2018-07-01T07:23:07.139Z,1008.49
2018-07-01T07:24:07.125Z,1008.51
2018-07-01T07:25:07.112Z,1008.55
2018-07-01T07:26:07.110Z,1008.55
2018-07-01T07:27:07.089Z,1008.58
2018-07-01T07:28:07.077Z,1008.55
2018-07-01T07:29:07.063Z,1008.53
2018-07-01T07:30:07.051Z,1008.52
2018-07-01T07:31:07.054Z,1008.43
2018-07-01T07:32:07.046Z,1008.49
2018-07-01T07:33:07.014Z,1008.53
2018-07-01T07:34:07.003Z,1008.51
2018-07-01T07:35:06.989Z,1008.51
2018-07-01T07:36:06.992Z,1008.55
2018-07-01T07:37:06.965Z,1008.52
2018-07-01T07:38:06.955Z,1008.47
2018-07-01T07:39:06.945Z,1008.52
2018-07-01T07:40:06.928Z,1008.54
2018-07-01T07:41:06.921Z,1008.49
2018-07-01T07:42:06.912Z,1008.51
2018-07-01T07:43:06.889Z,1008.46
2018-07-01T07:44:06.879Z,1008.47
2018-07-01T07:45:06.930Z,1008.49
2018-07-01T07:46:06.853Z,1008.41
2018-07-01T07:47:06.855Z,1008.50
2018-07-01T07:48:06.829Z,1008.45
2018-07-01T07:49:06.816Z,1008.41
2018-07-01T07:50:06.804Z,1008.47
2018-07-01T07:51:06.791Z,1008.41
2018-07-01T07:52:06.783Z,1008.36
2018-07-01T07:53:06.774Z,1008.37
2018-07-01T07:54:06.754Z,1008.39
2018-07-01T07:55:06.747Z,1008.46
2018-07-01T07:56:06.729Z,1008.43
2018-07-01T07:57:06.717Z,1008.44
2018-07-01T07:58:06.712Z,1008.43
2018-07-01T07:59:06.691Z,1008.38
2018-07-01T08:00:06.678Z,1008.34
2018-07-01T08:01:06.666Z,1008.40
2018-07-01T08:02:06.774Z,1008.30
2018-07-01T08:03:06.673Z,1008.36
2018-07-01T08:04:06.628Z,1008.40
2018-07-01T08:05:06.614Z,1008.41
2018-07-01T08:06:06.603Z,1008.38
2018-07-01T08:07:06.590Z,1008.38
2018-07-01T08:08:06.577Z,1008.41
2018-07-01T08:09:06.590Z,1008.36
2018-07-01T08:10:06.553Z,1008.39
2018-07-01T08:11:06.553Z,1008.40
2018-07-01T08:12:06.526Z,1008.39
2018-07-01T08:13:06.550Z,1008.39
2018-07-01T08:14:06.518Z,1008.30
2018-07-01T08:15:06.488Z,1008.36
2018-07-01T08:16:06.478Z,1008.36
2018-07-01T08:17:06.464Z,1008.40
2018-07-01T08:18:06.452Z,1008.42
2018-07-01T08:19:06.440Z,1008.44
2018-07-01T08:20:06.433Z,1008.43
2018-07-01T08:21:06.416Z,1008.40
2018-07-01T08:22:06.404Z,1008.33
2018-07-01T08:23:06.388Z,1008.39
2018-07-01T08:24:06.375Z,1008.42
2018-07-01T08:25:06.371Z,1008.39
2018-07-01T08:26:06.351Z,1008.44
2018-07-01T08:27:06.336Z,1008.43
2018-07-01T08:28:06.323Z,1008.42
2018-07-01T08:29:06.311Z,1008.46
2018-07-01T08:30:06.331Z,1008.44
2018-07-01T08:31:06.285Z,1008.48
2018-07-01T08:32:06.273Z,1008.51
2018-07-01T08:33:06.261Z,1008.41
2018-07-01T08:34:06.249Z,1008.46
2018-07-01T08:35:06.239Z,1008.50
2018-07-01T08:36:06.238Z,1008.50
2018-07-01T08:37:06.209Z,1008.45
2018-07-01T08:38:06.197Z,1008.51
2018-07-01T08:39:06.185Z,1008.49
2018-07-01T08:40:06.197Z,1008.48
2018-07-01T08:41:06.190Z,1008.50
2018-07-01T08:42:06.147Z,1008.53
2018-07-01T08:43:06.135Z,1008.50
2018-07-01T08:44:06.122Z,1008.47
2018-07-01T08:45:06.110Z,1008.49
2018-07-01T08:46:06.095Z,1008.45
2018-07-01T08:47:06.094Z,1008.48
2018-07-01T08:48:06.071Z,1008.46
2018-07-01T08:49:06.060Z,1008.49
2018-07-01T08:50:06.057Z,1008.43
2018-07-01T08:51:06.050Z,1008.44
2018-07-01T08:52:06.032Z,1008.49
2018-07-01T08:53:06.008Z,1008.44
2018-07-01T08:54:05.995Z,1008.51
2018-07-01T08:55:05.987Z,1008.50
2018-07-01T08:56:05.970Z,1008.48
2018-07-01T08:57:05.957Z,1008.45
2018-07-01T08:58:06.076Z,1008.51
2018-07-01T08:59:05.931Z,1008.49
2018-07-01T09:00:05.960Z,1008.47
2018-07-01T09:01:05.989Z,1008.51
2018-07-01T09:02:05.946Z,1008.47
2018-07-01T09:03:06.377Z,1008.50
2018-07-01T09:04:05.880Z,1008.52
2018-07-01T09:05:05.856Z,1008.57
2018-07-01T09:06:05.846Z,1008.50
2018-07-01T09:07:05.835Z,1008.54
2018-07-01T09:08:06.022Z,1008.58
2018-07-01T09:09:05.806Z,1008.55
2018-07-01T09:10:05.792Z,1008.54
2018-07-01T09:11:05.779Z,1008.56
2018-07-01T09:12:05.854Z,1008.58
2018-07-01T09:13:05.755Z,1008.55
2018-07-01T09:14:05.752Z,1008.60
2018-07-01T09:15:05.734Z,1008.48
2018-07-01T09:16:05.741Z,1008.49
2018-07-01T09:17:05.735Z,1008.53
2018-07-01T09:18:05.736Z,1008.52
2018-07-01T09:19:05.693Z,1008.49
2018-07-01T09:20:05.663Z,1008.51
2018-07-01T09:21:05.654Z,1008.55
2018-07-01T09:22:05.676Z,1008.53
2018-07-01T09:23:05.635Z,1008.58
2018-07-01T09:24:05.616Z,1008.50
2018-07-01T09:25:05.626Z,1008.50
2018-07-01T09:26:05.593Z,1008.46
2018-07-01T09:27:05.589Z,1008.51
2018-07-01T09:28:05.565Z,1008.47
2018-07-01T09:29:05.553Z,1008.45
2018-07-01T09:30:05.551Z,1008.48
2018-07-01T09:31:05.530Z,1008.50
2018-07-01T09:32:05.516Z,1008.35
2018-07-01T09:33:05.504Z,1008.41
2018-07-01T09:34:05.503Z,1008.41
2018-07-01T09:35:05.513Z,1008.38
2018-07-01T09:36:05.467Z,1008.36
2018-07-01T09:37:05.454Z,1008.38
2018-07-01T09:38:05.442Z,1008.35
2018-07-01T09:39:05.429Z,1008.34
2018-07-01T09:40:05.416Z,1008.35
2018-07-01T09:41:05.413Z,1008.32
2018-07-01T09:42:05.392Z,1008.29
2018-07-01T09:43:05.381Z,1008.34
2018-07-01T09:44:05.368Z,1008.35
2018-07-01T09:45:05.358Z,1008.41
2018-07-01T09:46:05.356Z,1008.32
2018-07-01T09:47:05.330Z,1008.35
2018-07-01T09:48:05.319Z,1008.37
2018-07-01T09:49:05.304Z,1008.34
2018-07-01T09:50:05.292Z,1008.40
2018-07-01T09:51:05.281Z,1008.33
2018-07-01T09:52:05.276Z,1008.33
2018-07-01T09:53:05.263Z,1008.33
2018-07-01T09:54:05.316Z,1008.35
2018-07-01T09:55:05.232Z,1008.31
2018-07-01T09:56:05.220Z,1008.28
2018-07-01T09:57:05.218Z,1008.25
2018-07-01T09:58:05.194Z,1008.26
2018-07-01T09:59:05.183Z,1008.28
2018-07-01T10:00:05.173Z,1008.24
2018-07-01T10:01:05.228Z,1008.27
2018-07-01T10:02:05.165Z,1008.26
2018-07-01T10:03:05.135Z,1008.21
2018-07-01T10:04:05.119Z,1008.21
2018-07-01T10:05:05.108Z,1008.13
2018-07-01T10:06:05.096Z,1008.17
2018-07-01T10:07:05.085Z,1008.16
2018-07-01T10:08:05.128Z,1008.17
2018-07-01T10:09:05.074Z,1008.19
2018-07-01T10:10:05.052Z,1008.20
2018-07-01T10:11:05.037Z,1008.18
2018-07-01T10:12:05.160Z,1008.22
2018-07-01T10:13:05.027Z,1008.22
2018-07-01T10:14:04.999Z,1008.20
2018-07-01T10:15:04.989Z,1008.18
2018-07-01T10:16:04.999Z,1008.19
2018-07-01T10:17:04.970Z,1008.18
2018-07-01T10:18:04.954Z,1008.18
2018-07-01T10:19:05.014Z,1008.19
2018-07-01T10:20:04.927Z,1008.22
2018-07-01T10:21:04.918Z,1008.21
2018-07-01T10:22:04.920Z,1008.24
2018-07-01T10:23:04.895Z,1008.30
2018-07-01T10:24:04.891Z,1008.32
2018-07-01T10:25:04.874Z,1008.30
2018-07-01T10:26:04.862Z,1008.28
2018-07-01T10:27:04.852Z,1008.21
2018-07-01T10:28:04.836Z,1008.23
2018-07-01T10:29:04.832Z,1008.18
2018-07-01T10:30:04.815Z,1008.19
2018-07-01T10:31:04.801Z,1008.16
2018-07-01T10:32:04.796Z,1008.18
2018-07-01T10:33:04.780Z,1008.15
2018-07-01T10:34:04.782Z,1008.15
2018-07-01T10:35:04.756Z,1008.19
2018-07-01T10:36:04.742Z,1008.12
2018-07-01T10:37:04.778Z,1008.15
2018-07-01T10:38:04.720Z,1008.06
2018-07-01T10:39:04.712Z,1008.09
2018-07-01T10:40:04.761Z,1008.05
2018-07-01T10:41:04.688Z,1008.07
2018-07-01T10:42:04.677Z,1008.07
2018-07-01T10:43:04.663Z,1008.09
2018-07-01T10:44:04.651Z,1008.03
2018-07-01T10:45:04.653Z,1008.09
2018-07-01T10:46:04.630Z,1008.06
2018-07-01T10:47:04.617Z,1008.04
2018-07-01T10:48:04.606Z,1008.07
2018-07-01T10:49:04.595Z,1008.04
2018-07-01T10:50:04.584Z,1008.05
2018-07-01T10:51:04.582Z,1008.05
2018-07-01T10:52:04.561Z,1008.06
2018-07-01T10:53:04.551Z,1008.12
2018-07-01T10:54:04.542Z,1008.11
2018-07-01T10:55:04.528Z,1008.14
2018-07-01T10:56:04.530Z,1008.14
2018-07-01T10:57:04.505Z,1008.16
2018-07-01T10:58:04.494Z,1008.18
2018-07-01T10:59:04.483Z,1008.19
2018-07-01T11:00:04.471Z,1008.16
2018-07-01T11:01:04.460Z,1008.08
2018-07-01T11:02:04.460Z,1008.10
2018-07-01T11:03:04.439Z,1008.08
2018-07-01T11:04:04.428Z,1008.05
2018-07-01T11:05:04.416Z,1008.03
2018-07-01T11:06:04.491Z,1008.00
2018-07-01T11:07:04.403Z,1008.08
2018-07-01T11:08:04.386Z,1008.09
2018-07-01T11:09:04.372Z,1008.08
2018-07-01T11:10:04.370Z,1008.08
2018-07-01T11:11:04.351Z,1008.12
2018-07-01T11:12:04.354Z,1008.10
2018-07-01T11:13:04.330Z,1008.07
2018-07-01T11:14:04.320Z,1008.03
2018-07-01T11:15:04.308Z,1008.02
2018-07-01T11:16:04.304Z,1007.99
2018-07-01T11:17:04.293Z,1007.92
2018-07-01T11:18:04.312Z,1007.99
2018-07-01T11:19:04.264Z,1007.87
2018-07-01T11:20:04.253Z,1007.92
2018-07-01T11:21:04.248Z,1007.87
2018-07-01T11:22:04.232Z,1007.90
2018-07-01T11:23:04.235Z,1007.88
2018-07-01T11:24:04.213Z,1007.85
2018-07-01T11:25:04.199Z,1007.80
2018-07-01T11:26:04.192Z,1007.77
2018-07-01T11:27:04.391Z,1007.86
2018-07-01T11:28:04.169Z,1007.85
2018-07-01T11:29:04.169Z,1007.83
2018-07-01T11:30:04.147Z,1007.82
2018-07-01T11:31:04.142Z,1007.83
2018-07-01T11:32:04.127Z,1007.80
2018-07-01T11:33:04.116Z,1007.82
2018-07-01T11:34:04.117Z,1007.86
2018-07-01T11:35:04.143Z,1007.80
2018-07-01T11:36:04.088Z,1007.77
2018-07-01T11:37:04.075Z,1007.72
2018-07-01T11:38:04.126Z,1007.72
2018-07-01T11:39:04.072Z,1007.76
2018-07-01T11:40:04.044Z,1007.73
2018-07-01T11:41:04.035Z,1007.78
2018-07-01T11:42:04.022Z,1007.70
2018-07-01T11:43:04.014Z,1007.74
2018-07-01T11:44:04.007Z,1007.76
2018-07-01T11:45:04.003Z,1007.75
2018-07-01T11:46:03.985Z,1007.71
2018-07-01T11:47:03.973Z,1007.68
2018-07-01T11:48:03.965Z,1007.69
2018-07-01T11:49:03.956Z,1007.67
2018-07-01T11:50:03.955Z,1007.63
2018-07-01T11:51:03.934Z,1007.62
2018-07-01T11:52:03.927Z,1007.63
2018-07-01T11:53:03.912Z,1007.66
2018-07-01T11:54:03.910Z,1007.63
2018-07-01T11:55:03.893Z,1007.63
2018-07-01T11:56:03.892Z,1007.63
2018-07-01T11:57:03.873Z,1007.67
2018-07-01T11:58:03.865Z,1007.64
2018-07-01T11:59:03.851Z,1007.62
2018-07-01T12:00:03.911Z,1007.65
2018-07-01T12:01:03.844Z,1007.62
2018-07-01T12:02:03.823Z,1007.55
2018-07-01T12:03:03.812Z,1007.60
2018-07-01T12:04:03.801Z,1007.61
2018-07-01T12:05:16.657Z,1007.69